sensor_id;sensor_type;location;lat;lon;timestamp;pressure;altitude;pressure_sealevel;temperature;humidity
73220;BME280;61434;43.538;-5.688;2022-12-15T00:01:48;99442.25;;;14.12;79.14
73220;BME280;61434;43.538;-5.688;2022-12-15T00:04:32;99443.19;;;14.20;79.05
73220;BME280;61434;43.538;-5.688;2022-12-15T00:07:16;99438.06;;;14.10;79.09
73220;BME280;61434;43.538;-5.688;2022-12-15T00:10:00;99439.38;;;14.14;79.06
73220;BME280;61434;43.538;-5.688;2022-12-15T00:12:43;99441.13;;;14.22;78.57
73220;BME280;61434;43.538;-5.688;2022-12-15T00:15:27;99447.50;;;14.14;78.89
73220;BME280;61434;43.538;-5.688;2022-12-15T00:18:11;99437.66;;;14.13;78.91
73220;BME280;61434;43.538;-5.688;2022-12-15T00:20:56;99437.38;;;14.08;79.41
73220;BME280;61434;43.538;-5.688;2022-12-15T00:23:40;99429.44;;;13.92;80.40
73220;BME280;61434;43.538;-5.688;2022-12-15T00:26:24;99423.81;;;13.93;79.99
73220;BME280;61434;43.538;-5.688;2022-12-15T00:29:08;99430.06;;;13.94;80.10
73220;BME280;61434;43.538;-5.688;2022-12-15T00:31:52;99422.34;;;13.91;80.13
73220;BME280;61434;43.538;-5.688;2022-12-15T00:34:36;99418.97;;;13.89;80.38
73220;BME280;61434;43.538;-5.688;2022-12-15T00:37:20;99416.44;;;13.87;79.90
73220;BME280;61434;43.538;-5.688;2022-12-15T00:40:04;99418.59;;;13.92;80.01
73220;BME280;61434;43.538;-5.688;2022-12-15T00:42:31;99412.41;;;13.68;80.25
73220;BME280;61434;43.538;-5.688;2022-12-15T00:44:56;99414.38;;;13.74;80.49
73220;BME280;61434;43.538;-5.688;2022-12-15T00:47:22;99411.41;;;13.84;79.86
73220;BME280;61434;43.538;-5.688;2022-12-15T00:49:48;99408.47;;;13.56;80.23
73220;BME280;61434;43.538;-5.688;2022-12-15T00:52:31;99411.22;;;13.71;80.15
73220;BME280;61434;43.538;-5.688;2022-12-15T00:55:16;99407.34;;;13.65;79.96
73220;BME280;61434;43.538;-5.688;2022-12-15T00:58:00;99404.38;;;13.75;79.84
73220;BME280;61434;43.538;-5.688;2022-12-15T01:00:44;99402.53;;;13.75;79.37
73220;BME280;61434;43.538;-5.688;2022-12-15T01:03:28;99403.81;;;13.79;78.98
73220;BME280;61434;43.538;-5.688;2022-12-15T01:06:13;99399.94;;;13.82;78.77
73220;BME280;61434;43.538;-5.688;2022-12-15T01:08:57;99398.91;;;13.83;78.73
73220;BME280;61434;43.538;-5.688;2022-12-15T01:11:41;99393.47;;;13.68;79.17
73220;BME280;61434;43.538;-5.688;2022-12-15T01:14:25;99395.97;;;13.70;78.94
73220;BME280;61434;43.538;-5.688;2022-12-15T01:17:09;99400.66;;;13.61;79.41
73220;BME280;61434;43.538;-5.688;2022-12-15T01:19:53;99399.75;;;13.46;79.51
73220;BME280;61434;43.538;-5.688;2022-12-15T01:22:37;99396.09;;;13.39;80.62
73220;BME280;61434;43.538;-5.688;2022-12-15T01:25:03;99394.53;;;13.44;80.20
73220;BME280;61434;43.538;-5.688;2022-12-15T01:27:29;99390.13;;;13.66;79.24
73220;BME280;61434;43.538;-5.688;2022-12-15T01:29:54;99392.16;;;13.41;80.12
73220;BME280;61434;43.538;-5.688;2022-12-15T01:32:20;99393.03;;;13.42;80.05
73220;BME280;61434;43.538;-5.688;2022-12-15T01:34:45;99393.06;;;13.56;79.59
73220;BME280;61434;43.538;-5.688;2022-12-15T01:37:10;99390.91;;;13.52;79.45
73220;BME280;61434;43.538;-5.688;2022-12-15T01:39:36;99393.72;;;13.58;79.62
73220;BME280;61434;43.538;-5.688;2022-12-15T01:42:20;99395.44;;;13.74;78.82
73220;BME280;61434;43.538;-5.688;2022-12-15T01:44:47;99401.38;;;13.70;78.66
73220;BME280;61434;43.538;-5.688;2022-12-15T01:47:13;99402.94;;;13.49;79.50
73220;BME280;61434;43.538;-5.688;2022-12-15T01:49:39;99392.50;;;13.46;nan
73220;BME280;61434;43.538;-5.688;2022-12-15T01:52:06;99391.47;;;13.47;79.27
73220;BME280;61434;43.538;-5.688;2022-12-15T01:54:42;99393.44;;;13.53;79.43
73220;BME280;61434;43.538;-5.688;2022-12-15T01:57:12;99391.63;;;13.46;79.58
73220;BME280;61434;43.538;-5.688;2022-12-15T01:59:43;99383.22;;;13.41;79.86
73220;BME280;61434;43.538;-5.688;2022-12-15T02:02:11;99389.41;;;13.49;79.87
73220;BME280;61434;43.538;-5.688;2022-12-15T02:04:38;99390.63;;;13.47;79.40
73220;BME280;61434;43.538;-5.688;2022-12-15T02:07:03;99389.13;;;13.44;79.72
73220;BME280;61434;43.538;-5.688;2022-12-15T02:09:28;99386.72;;;13.26;79.78
73220;BME280;61434;43.538;-5.688;2022-12-15T02:14:55;99387.16;;;13.38;79.65
73220;BME280;61434;43.538;-5.688;2022-12-15T02:19:55;99392.19;;;13.18;79.88
73220;BME280;61434;43.538;-5.688;2022-12-15T02:22:31;99386.59;;;13.20;80.12
73220;BME280;61434;43.538;-5.688;2022-12-15T02:30:33;99378.53;;;13.12;79.79
73220;BME280;61434;43.538;-5.688;2022-12-15T02:33:05;99371.63;;;13.09;80.49
73220;BME280;61434;43.538;-5.688;2022-12-15T02:35:36;99372.28;;;13.11;80.26
73220;BME280;61434;43.538;-5.688;2022-12-15T02:38:06;99368.16;;;13.00;80.23
73220;BME280;61434;43.538;-5.688;2022-12-15T02:40:32;99376.44;;;12.99;80.63
73220;BME280;61434;43.538;-5.688;2022-12-15T02:42:57;99377.69;;;13.11;80.26
73220;BME280;61434;43.538;-5.688;2022-12-15T02:48:13;99381.41;;;13.10;79.76
73220;BME280;61434;43.538;-5.688;2022-12-15T03:01:08;99380.56;;;12.87;80.13
73220;BME280;61434;43.538;-5.688;2022-12-15T03:03:35;99378.34;;;12.90;80.53
73220;BME280;61434;43.538;-5.688;2022-12-15T03:06:02;99373.28;;;12.87;80.12
73220;BME280;61434;43.538;-5.688;2022-12-15T03:08:27;99379.97;;;12.76;80.28
73220;BME280;61434;43.538;-5.688;2022-12-15T03:10:53;99368.72;;;12.88;80.04
73220;BME280;61434;43.538;-5.688;2022-12-15T03:13:19;99365.63;;;12.76;80.12
73220;BME280;61434;43.538;-5.688;2022-12-15T03:15:45;99365.22;;;12.79;80.11
73220;BME280;61434;43.538;-5.688;2022-12-15T03:18:10;99381.06;;;12.59;81.31
73220;BME280;61434;43.538;-5.688;2022-12-15T03:20:36;99369.00;;;12.47;81.74
73220;BME280;61434;43.538;-5.688;2022-12-15T03:23:01;99365.03;;;12.57;81.74
73220;BME280;61434;43.538;-5.688;2022-12-15T03:25:27;99369.38;;;12.67;81.13
73220;BME280;61434;43.538;-5.688;2022-12-15T03:27:53;99369.88;;;12.70;80.61
73220;BME280;61434;43.538;-5.688;2022-12-15T03:30:19;99365.88;;;12.58;80.84
73220;BME280;61434;43.538;-5.688;2022-12-15T03:32:45;99369.66;;;12.41;81.72
73220;BME280;61434;43.538;-5.688;2022-12-15T03:35:11;99371.16;;;12.51;81.34
73220;BME280;61434;43.538;-5.688;2022-12-15T03:37:37;99370.22;;;12.67;80.96
73220;BME280;61434;43.538;-5.688;2022-12-15T03:40:03;99370.41;;;12.66;80.21
73220;BME280;61434;43.538;-5.688;2022-12-15T03:42:29;99375.81;;;12.66;80.53
73220;BME280;61434;43.538;-5.688;2022-12-15T03:45:21;99383.22;;;12.64;80.28
73220;BME280;61434;43.538;-5.688;2022-12-15T03:47:47;99382.34;;;12.71;79.69
73220;BME280;61434;43.538;-5.688;2022-12-15T03:50:15;99378.88;;;12.54;79.98
73220;BME280;61434;43.538;-5.688;2022-12-15T03:52:43;99383.41;;;12.62;80.01
73220;BME280;61434;43.538;-5.688;2022-12-15T03:55:09;99376.41;;;12.45;80.11
73220;BME280;61434;43.538;-5.688;2022-12-15T03:57:34;99381.03;;;12.36;80.90
73220;BME280;61434;43.538;-5.688;2022-12-15T04:00:00;99386.56;;;12.43;80.83
73220;BME280;61434;43.538;-5.688;2022-12-15T04:02:26;99385.50;;;12.52;79.89
73220;BME280;61434;43.538;-5.688;2022-12-15T04:04:51;99387.09;;;12.30;80.63
73220;BME280;61434;43.538;-5.688;2022-12-15T04:07:17;99386.22;;;12.46;80.91
73220;BME280;61434;43.538;-5.688;2022-12-15T04:09:42;99394.69;;;12.35;80.37
73220;BME280;61434;43.538;-5.688;2022-12-15T04:12:10;99385.84;;;12.49;80.18
73220;BME280;61434;43.538;-5.688;2022-12-15T04:14:36;99380.72;;;12.62;79.84
73220;BME280;61434;43.538;-5.688;2022-12-15T04:17:10;99394.56;;;12.59;79.32
73220;BME280;61434;43.538;-5.688;2022-12-15T04:19:36;99384.72;;;12.74;79.33
73220;BME280;61434;43.538;-5.688;2022-12-15T04:22:20;99389.88;;;12.53;79.49
73220;BME280;61434;43.538;-5.688;2022-12-15T04:24:45;99385.25;;;12.70;79.49
73220;BME280;61434;43.538;-5.688;2022-12-15T04:27:30;99389.84;;;12.61;79.18
73220;BME280;61434;43.538;-5.688;2022-12-15T04:30:14;99389.88;;;12.53;79.50
73220;BME280;61434;43.538;-5.688;2022-12-15T04:32:58;99387.25;;;12.68;79.45
73220;BME280;61434;43.538;-5.688;2022-12-15T04:35:43;99388.63;;;12.64;79.19
73220;BME280;61434;43.538;-5.688;2022-12-15T04:38:27;99387.50;;;12.50;79.96
73220;BME280;61434;43.538;-5.688;2022-12-15T04:41:12;99373.75;;;12.68;79.49
73220;BME280;61434;43.538;-5.688;2022-12-15T04:43:57;99378.13;;;12.69;79.30
73220;BME280;61434;43.538;-5.688;2022-12-15T04:46:41;99378.72;;;12.56;79.48
73220;BME280;61434;43.538;-5.688;2022-12-15T04:49:25;99378.41;;;12.51;80.03
73220;BME280;61434;43.538;-5.688;2022-12-15T04:52:09;99372.03;;;12.44;80.36
73220;BME280;61434;43.538;-5.688;2022-12-15T04:54:53;99371.63;;;12.55;80.13
73220;BME280;61434;43.538;-5.688;2022-12-15T04:57:37;99381.50;;;12.71;78.97
73220;BME280;61434;43.538;-5.688;2022-12-15T05:00:21;99384.06;;;12.64;79.80
73220;BME280;61434;43.538;-5.688;2022-12-15T05:03:06;99390.50;;;12.63;79.11
73220;BME280;61434;43.538;-5.688;2022-12-15T05:05:51;99395.28;;;12.53;79.58
73220;BME280;61434;43.538;-5.688;2022-12-15T05:08:35;99397.38;;;12.35;80.07
73220;BME280;61434;43.538;-5.688;2022-12-15T05:11:20;99394.88;;;12.33;80.37
73220;BME280;61434;43.538;-5.688;2022-12-15T05:14:04;99399.88;;;12.44;nan
73220;BME280;61434;43.538;-5.688;2022-12-15T05:16:48;99401.81;;;12.58;79.94
73220;BME280;61434;43.538;-5.688;2022-12-15T05:19:32;99400.91;;;12.43;80.07
73220;BME280;61434;43.538;-5.688;2022-12-15T05:22:16;99394.97;;;12.48;80.71
73220;BME280;61434;43.538;-5.688;2022-12-15T05:25:00;99398.22;;;12.97;79.76
73220;BME280;61434;43.538;-5.688;2022-12-15T05:27:44;99402.69;;;12.90;79.41
73220;BME280;61434;43.538;-5.688;2022-12-15T05:30:28;99404.03;;;12.55;79.40
73220;BME280;61434;43.538;-5.688;2022-12-15T05:33:12;99410.66;;;12.52;79.76
73220;BME280;61434;43.538;-5.688;2022-12-15T05:35:37;99406.13;;;12.76;80.08
73220;BME280;61434;43.538;-5.688;2022-12-15T05:38:06;99417.97;;;12.75;79.36
73220;BME280;61434;43.538;-5.688;2022-12-15T05:40:32;99416.03;;;12.83;78.78
73220;BME280;61434;43.538;-5.688;2022-12-15T05:42:57;99426.94;;;12.67;79.36
73220;BME280;61434;43.538;-5.688;2022-12-15T05:45:23;99430.06;;;12.79;79.57
73220;BME280;61434;43.538;-5.688;2022-12-15T05:47:50;99427.78;;;12.99;79.80
73220;BME280;61434;43.538;-5.688;2022-12-15T05:50:16;99440.09;;;13.01;79.35
73220;BME280;61434;43.538;-5.688;2022-12-15T05:52:41;99432.47;;;12.74;79.37
73220;BME280;61434;43.538;-5.688;2022-12-15T05:55:07;99446.03;;;12.66;80.65
73220;BME280;61434;43.538;-5.688;2022-12-15T05:57:33;99446.16;;;12.72;79.96
73220;BME280;61434;43.538;-5.688;2022-12-15T05:59:58;99441.91;;;13.09;80.10
73220;BME280;61434;43.538;-5.688;2022-12-15T06:02:24;99451.44;;;12.97;79.37
73220;BME280;61434;43.538;-5.688;2022-12-15T06:04:49;99440.88;;;12.79;80.19
73220;BME280;61434;43.538;-5.688;2022-12-15T06:07:15;99446.88;;;12.66;80.62
73220;BME280;61434;43.538;-5.688;2022-12-15T06:09:40;99447.50;;;12.76;80.48
73220;BME280;61434;43.538;-5.688;2022-12-15T06:12:06;99456.56;;;12.52;81.01
73220;BME280;61434;43.538;-5.688;2022-12-15T06:14:31;99454.16;;;12.66;81.46
73220;BME280;61434;43.538;-5.688;2022-12-15T06:16:57;99456.97;;;12.72;80.97
73220;BME280;61434;43.538;-5.688;2022-12-15T06:19:24;99450.19;;;12.76;80.50
73220;BME280;61434;43.538;-5.688;2022-12-15T06:21:49;99448.69;;;13.05;80.86
73220;BME280;61434;43.538;-5.688;2022-12-15T06:24:14;99460.56;;;12.96;79.86
73220;BME280;61434;43.538;-5.688;2022-12-15T06:26:40;99458.06;;;12.94;79.83
73220;BME280;61434;43.538;-5.688;2022-12-15T06:29:07;99457.91;;;12.88;79.56
73220;BME280;61434;43.538;-5.688;2022-12-15T06:31:33;99460.00;;;12.69;80.06
73220;BME280;61434;43.538;-5.688;2022-12-15T06:34:01;99467.38;;;12.83;79.99
73220;BME280;61434;43.538;-5.688;2022-12-15T06:36:28;99467.13;;;12.70;80.27
73220;BME280;61434;43.538;-5.688;2022-12-15T06:38:57;99473.00;;;12.74;80.16
73220;BME280;61434;43.538;-5.688;2022-12-15T06:41:23;99477.78;;;12.64;80.38
73220;BME280;61434;43.538;-5.688;2022-12-15T06:43:53;99480.03;;;12.44;81.54
73220;BME280;61434;43.538;-5.688;2022-12-15T06:46:22;99487.22;;;12.68;80.53
73220;BME280;61434;43.538;-5.688;2022-12-15T06:48:48;99484.84;;;12.65;80.52
73220;BME280;61434;43.538;-5.688;2022-12-15T06:51:14;99485.75;;;12.49;81.33
73220;BME280;61434;43.538;-5.688;2022-12-15T06:53:41;99492.81;;;12.66;80.34
73220;BME280;61434;43.538;-5.688;2022-12-15T06:58:46;99501.03;;;12.73;80.89
73220;BME280;61434;43.538;-5.688;2022-12-15T07:01:13;99501.63;;;12.60;80.37
73220;BME280;61434;43.538;-5.688;2022-12-15T07:03:39;99507.97;;;12.75;80.38
73220;BME280;61434;43.538;-5.688;2022-12-15T07:06:07;99512.66;;;12.81;80.67
73220;BME280;61434;43.538;-5.688;2022-12-15T07:08:33;99507.97;;;13.06;79.01
73220;BME280;61434;43.538;-5.688;2022-12-15T07:11:01;99512.22;;;13.01;79.18
73220;BME280;61434;43.538;-5.688;2022-12-15T07:13:27;99511.28;;;12.94;79.51
73220;BME280;61434;43.538;-5.688;2022-12-15T07:15:53;99516.09;;;13.06;79.77
73220;BME280;61434;43.538;-5.688;2022-12-15T07:18:18;99511.59;;;12.99;79.63
73220;BME280;61434;43.538;-5.688;2022-12-15T07:20:44;99502.41;;;13.08;79.51
73220;BME280;61434;43.538;-5.688;2022-12-15T07:23:10;99515.94;;;13.08;79.06
73220;BME280;61434;43.538;-5.688;2022-12-15T07:25:36;99518.69;;;12.92;78.96
73220;BME280;61434;43.538;-5.688;2022-12-15T07:28:02;99522.13;;;12.77;79.18
73220;BME280;61434;43.538;-5.688;2022-12-15T07:30:27;99526.09;;;12.98;79.47
73220;BME280;61434;43.538;-5.688;2022-12-15T07:32:53;99525.78;;;12.93;80.35
73220;BME280;61434;43.538;-5.688;2022-12-15T07:35:18;99527.50;;;13.17;79.30
73220;BME280;61434;43.538;-5.688;2022-12-15T07:37:44;99531.88;;;12.95;79.57
73220;BME280;61434;43.538;-5.688;2022-12-15T07:40:10;99534.16;;;12.75;79.68
73220;BME280;61434;43.538;-5.688;2022-12-15T07:42:36;99534.56;;;12.95;79.42
73220;BME280;61434;43.538;-5.688;2022-12-15T07:45:03;99543.03;;;12.83;79.50
73220;BME280;61434;43.538;-5.688;2022-12-15T07:47:29;99549.56;;;12.97;80.39
73220;BME280;61434;43.538;-5.688;2022-12-15T07:49:55;99560.19;;;13.07;78.90
73220;BME280;61434;43.538;-5.688;2022-12-15T07:55:55;99573.03;;;13.05;80.60
73220;BME280;61434;43.538;-5.688;2022-12-15T07:58:23;99569.00;;;13.01;79.28
73220;BME280;61434;43.538;-5.688;2022-12-15T08:00:50;99572.53;;;13.41;79.71
73220;BME280;61434;43.538;-5.688;2022-12-15T08:03:16;99577.41;;;13.22;78.25
73220;BME280;61434;43.538;-5.688;2022-12-15T08:05:49;99579.81;;;13.01;78.85
73220;BME280;61434;43.538;-5.688;2022-12-15T08:08:16;99577.41;;;13.06;78.97
73220;BME280;61434;43.538;-5.688;2022-12-15T08:10:42;99591.22;;;13.19;78.78
73220;BME280;61434;43.538;-5.688;2022-12-15T08:16:06;99595.53;;;12.97;79.50
73220;BME280;61434;43.538;-5.688;2022-12-15T08:18:31;99594.16;;;13.01;79.76
73220;BME280;61434;43.538;-5.688;2022-12-15T08:21:04;99594.84;;;13.03;80.34
73220;BME280;61434;43.538;-5.688;2022-12-15T08:23:31;99604.44;;;13.14;80.08
73220;BME280;61434;43.538;-5.688;2022-12-15T08:26:08;99603.53;;;13.30;79.62
73220;BME280;61434;43.538;-5.688;2022-12-15T08:28:35;99603.50;;;13.38;78.96
73220;BME280;61434;43.538;-5.688;2022-12-15T08:31:03;99608.72;;;13.40;78.54
73220;BME280;61434;43.538;-5.688;2022-12-15T08:33:28;99608.94;;;13.30;79.72
73220;BME280;61434;43.538;-5.688;2022-12-15T08:36:02;99612.88;;;13.27;79.29
73220;BME280;61434;43.538;-5.688;2022-12-15T08:38:29;99611.66;;;13.30;78.94
73220;BME280;61434;43.538;-5.688;2022-12-15T08:40:54;99619.56;;;13.40;79.23
73220;BME280;61434;43.538;-5.688;2022-12-15T08:43:21;99614.97;;;13.40;78.25
73220;BME280;61434;43.538;-5.688;2022-12-15T08:45:47;99615.38;;;13.60;77.89
73220;BME280;61434;43.538;-5.688;2022-12-15T08:48:12;99620.53;;;13.47;77.57
73220;BME280;61434;43.538;-5.688;2022-12-15T08:50:42;99615.00;;;13.71;77.16
73220;BME280;61434;43.538;-5.688;2022-12-15T08:53:09;99616.38;;;13.67;77.43
73220;BME280;61434;43.538;-5.688;2022-12-15T08:55:34;99630.47;;;13.54;77.64
73220;BME280;61434;43.538;-5.688;2022-12-15T08:57:59;99622.97;;;13.65;77.68
73220;BME280;61434;43.538;-5.688;2022-12-15T09:00:25;99636.91;;;13.53;77.99
73220;BME280;61434;43.538;-5.688;2022-12-15T09:02:50;99638.06;;;13.59;78.21
73220;BME280;61434;43.538;-5.688;2022-12-15T09:05:16;99641.75;;;13.66;77.36
73220;BME280;61434;43.538;-5.688;2022-12-15T09:07:41;99633.56;;;13.74;77.31
73220;BME280;61434;43.538;-5.688;2022-12-15T09:10:07;99637.00;;;13.68;77.11
73220;BME280;61434;43.538;-5.688;2022-12-15T09:12:32;99643.72;;;13.72;77.05
73220;BME280;61434;43.538;-5.688;2022-12-15T09:14:58;99640.44;;;13.54;76.76
73220;BME280;61434;43.538;-5.688;2022-12-15T09:17:23;99642.50;;;13.75;77.71
73220;BME280;61434;43.538;-5.688;2022-12-15T09:19:49;99644.06;;;13.69;76.62
73220;BME280;61434;43.538;-5.688;2022-12-15T09:22:14;99653.19;;;13.76;76.31
73220;BME280;61434;43.538;-5.688;2022-12-15T09:24:40;99656.84;;;13.83;75.88
73220;BME280;61434;43.538;-5.688;2022-12-15T09:27:05;99654.38;;;13.74;77.26
73220;BME280;61434;43.538;-5.688;2022-12-15T09:29:31;99652.84;;;14.02;76.85
73220;BME280;61434;43.538;-5.688;2022-12-15T09:31:57;99663.75;;;13.94;76.23
73220;BME280;61434;43.538;-5.688;2022-12-15T09:34:22;99669.47;;;13.99;76.26
73220;BME280;61434;43.538;-5.688;2022-12-15T09:36:48;99674.66;;;14.09;76.06
73220;BME280;61434;43.538;-5.688;2022-12-15T09:39:13;99668.56;;;14.07;76.74
73220;BME280;61434;43.538;-5.688;2022-12-15T09:41:48;99673.63;;;14.33;75.69
73220;BME280;61434;43.538;-5.688;2022-12-15T09:44:18;99679.94;;;14.25;75.54
73220;BME280;61434;43.538;-5.688;2022-12-15T09:52:04;99674.41;;;14.65;74.60
73220;BME280;61434;43.538;-5.688;2022-12-15T09:54:32;99675.91;;;14.67;74.72
73220;BME280;61434;43.538;-5.688;2022-12-15T09:57:02;99677.19;;;14.56;74.81
73220;BME280;61434;43.538;-5.688;2022-12-15T10:07:36;99695.53;;;14.69;74.02
73220;BME280;61434;43.538;-5.688;2022-12-15T10:10:23;99690.75;;;14.56;73.91
73220;BME280;61434;43.538;-5.688;2022-12-15T10:12:52;99696.22;;;14.48;74.08
73220;BME280;61434;43.538;-5.688;2022-12-15T10:15:22;99700.63;;;14.49;73.97
73220;BME280;61434;43.538;-5.688;2022-12-15T10:18:00;99699.16;;;14.61;73.96
73220;BME280;61434;43.538;-5.688;2022-12-15T10:20:30;99696.59;;;14.37;74.29
73220;BME280;61434;43.538;-5.688;2022-12-15T10:23:01;99695.03;;;14.66;73.77
73220;BME280;61434;43.538;-5.688;2022-12-15T10:25:33;99697.94;;;14.64;73.73
73220;BME280;61434;43.538;-5.688;2022-12-15T10:31:00;99708.53;;;14.74;73.23
73220;BME280;61434;43.538;-5.688;2022-12-15T10:33:37;99710.31;;;15.04;72.75
73220;BME280;61434;43.538;-5.688;2022-12-15T10:36:10;99707.38;;;14.91;72.73
73220;BME280;61434;43.538;-5.688;2022-12-15T10:38:41;99709.97;;;14.99;72.83
73220;BME280;61434;43.538;-5.688;2022-12-15T10:41:19;99711.50;;;15.31;72.20
73220;BME280;61434;43.538;-5.688;2022-12-15T10:43:47;99709.91;;;15.52;70.91
73220;BME280;61434;43.538;-5.688;2022-12-15T10:48:58;99702.94;;;15.72;70.35
73220;BME280;61434;43.538;-5.688;2022-12-15T10:51:31;99702.41;;;15.98;69.57
73220;BME280;61434;43.538;-5.688;2022-12-15T10:56:58;99698.56;;;16.50;68.41
73220;BME280;61434;43.538;-5.688;2022-12-15T10:59:34;99699.78;;;16.48;67.83
73220;BME280;61434;43.538;-5.688;2022-12-15T11:07:35;99708.91;;;16.19;68.97
73220;BME280;61434;43.538;-5.688;2022-12-15T11:10:12;99699.78;;;16.26;68.81
73220;BME280;61434;43.538;-5.688;2022-12-15T11:12:38;99703.09;;;16.43;68.49
73220;BME280;61434;43.538;-5.688;2022-12-15T11:20:37;99688.78;;;16.56;68.17
73220;BME280;61434;43.538;-5.688;2022-12-15T11:23:17;99688.53;;;16.51;69.29
73220;BME280;61434;43.538;-5.688;2022-12-15T11:25:50;99692.09;;;16.30;68.65
73220;BME280;61434;43.538;-5.688;2022-12-15T11:28:22;99693.00;;;16.58;68.21
73220;BME280;61434;43.538;-5.688;2022-12-15T11:30:59;99690.94;;;16.82;67.79
73220;BME280;61434;43.538;-5.688;2022-12-15T11:33:26;99694.34;;;16.48;67.51
73220;BME280;61434;43.538;-5.688;2022-12-15T11:38:49;99680.75;;;16.48;67.80
73220;BME280;61434;43.538;-5.688;2022-12-15T11:41:47;99682.72;;;16.54;67.76
73220;BME280;61434;43.538;-5.688;2022-12-15T11:57:57;99684.59;;;17.31;66.00
73220;BME280;61434;43.538;-5.688;2022-12-15T12:00:30;99683.53;;;16.97;65.78
73220;BME280;61434;43.538;-5.688;2022-12-15T12:03:24;99692.06;;;17.22;65.69
73220;BME280;61434;43.538;-5.688;2022-12-15T12:11:57;99683.03;;;17.56;64.97
73220;BME280;61434;43.538;-5.688;2022-12-15T12:14:44;99687.38;;;17.44;65.28
73220;BME280;61434;43.538;-5.688;2022-12-15T12:20:20;99681.44;;;17.68;63.78
73220;BME280;61434;43.538;-5.688;2022-12-15T12:25:46;99680.94;;;17.93;63.18
73220;BME280;61434;43.538;-5.688;2022-12-15T12:28:28;99670.94;;;17.72;61.49
73220;BME280;61434;43.538;-5.688;2022-12-15T12:30:56;99680.66;;;17.40;63.45
73220;BME280;61434;43.538;-5.688;2022-12-15T12:33:32;99677.31;;;17.10;63.99
73220;BME280;61434;43.538;-5.688;2022-12-15T12:36:12;99676.88;;;17.34;64.32
73220;BME280;61434;43.538;-5.688;2022-12-15T12:38:43;99673.88;;;17.29;63.93
73220;BME280;61434;43.538;-5.688;2022-12-15T12:43:51;99677.94;;;17.40;64.52
73220;BME280;61434;43.538;-5.688;2022-12-15T12:46:32;99691.22;;;17.22;64.38
73220;BME280;61434;43.538;-5.688;2022-12-15T12:54:50;99683.41;;;16.84;62.78
73220;BME280;61434;43.538;-5.688;2022-12-15T12:59:55;99677.59;;;16.87;60.40
73220;BME280;61434;43.538;-5.688;2022-12-15T13:07:33;99674.56;;;16.75;59.38
73220;BME280;61434;43.538;-5.688;2022-12-15T13:12:50;99686.19;;;16.48;60.28
73220;BME280;61434;43.538;-5.688;2022-12-15T13:15:38;99685.44;;;16.54;61.11
73220;BME280;61434;43.538;-5.688;2022-12-15T13:18:17;99690.75;;;16.40;60.78
73220;BME280;61434;43.538;-5.688;2022-12-15T13:20:44;99681.81;;;16.47;60.76
73220;BME280;61434;43.538;-5.688;2022-12-15T13:23:33;99679.78;;;16.77;60.12
73220;BME280;61434;43.538;-5.688;2022-12-15T13:26:02;99683.28;;;16.92;59.72
73220;BME280;61434;43.538;-5.688;2022-12-15T13:36:41;99687.81;;;17.13;60.57
73220;BME280;61434;43.538;-5.688;2022-12-15T13:44:31;99691.97;;;17.09;58.85
73220;BME280;61434;43.538;-5.688;2022-12-15T13:49:55;99701.03;;;17.16;57.70
73220;BME280;61434;43.538;-5.688;2022-12-15T13:54:59;99698.94;;;17.53;57.59
73220;BME280;61434;43.538;-5.688;2022-12-15T13:57:26;99700.41;;;17.55;56.75
73220;BME280;61434;43.538;-5.688;2022-12-15T14:00:02;99703.44;;;17.39;56.67
73220;BME280;61434;43.538;-5.688;2022-12-15T14:02:33;99696.44;;;17.58;56.39
73220;BME280;61434;43.538;-5.688;2022-12-15T14:05:18;99697.53;;;17.63;57.17
73220;BME280;61434;43.538;-5.688;2022-12-15T14:10:38;99701.59;;;17.74;56.81
73220;BME280;61434;43.538;-5.688;2022-12-15T14:15:55;99701.22;;;17.90;56.94
73220;BME280;61434;43.538;-5.688;2022-12-15T14:18:29;99700.72;;;17.39;56.89
73220;BME280;61434;43.538;-5.688;2022-12-15T14:20:56;99699.41;;;17.28;56.45
73220;BME280;61434;43.538;-5.688;2022-12-15T14:23:27;99702.09;;;17.22;56.56
73220;BME280;61434;43.538;-5.688;2022-12-15T14:26:13;99693.13;;;16.93;56.59
73220;BME280;61434;43.538;-5.688;2022-12-15T14:28:41;99703.53;;;16.89;58.10
73220;BME280;61434;43.538;-5.688;2022-12-15T14:31:10;99714.75;;;16.80;58.23
73220;BME280;61434;43.538;-5.688;2022-12-15T14:33:41;99717.09;;;16.83;57.54
73220;BME280;61434;43.538;-5.688;2022-12-15T14:36:10;99723.59;;;16.67;58.02
73220;BME280;61434;43.538;-5.688;2022-12-15T14:39:14;99715.41;;;16.82;57.89
73220;BME280;61434;43.538;-5.688;2022-12-15T14:42:03;99719.41;;;16.64;58.14
73220;BME280;61434;43.538;-5.688;2022-12-15T14:44:53;99722.13;;;16.64;57.07
73220;BME280;61434;43.538;-5.688;2022-12-15T14:47:25;99729.94;;;16.31;58.25
73220;BME280;61434;43.538;-5.688;2022-12-15T14:49:53;99726.53;;;16.65;56.96
73220;BME280;61434;43.538;-5.688;2022-12-15T14:52:34;99720.50;;;16.70;56.74
73220;BME280;61434;43.538;-5.688;2022-12-15T14:55:48;99727.34;;;16.66;57.92
73220;BME280;61434;43.538;-5.688;2022-12-15T14:57:50;99728.94;;;16.75;57.11
73220;BME280;61434;43.538;-5.688;2022-12-15T15:08:45;99734.28;;;17.11;56.42
73220;BME280;61434;43.538;-5.688;2022-12-15T15:13:53;99749.50;;;17.06;56.41
73220;BME280;61434;43.538;-5.688;2022-12-15T15:16:19;99747.75;;;16.98;57.08
73220;BME280;61434;43.538;-5.688;2022-12-15T15:18:52;99753.41;;;16.97;57.33
73220;BME280;61434;43.538;-5.688;2022-12-15T15:21:24;99757.09;;;16.89;57.44
73220;BME280;61434;43.538;-5.688;2022-12-15T15:26:32;99763.06;;;16.78;57.55
73220;BME280;61434;43.538;-5.688;2022-12-15T15:28:57;99766.84;;;16.62;57.80
73220;BME280;61434;43.538;-5.688;2022-12-15T15:31:37;99768.34;;;16.64;58.19
73220;BME280;61434;43.538;-5.688;2022-12-15T15:34:03;99776.94;;;16.83;58.11
73220;BME280;61434;43.538;-5.688;2022-12-15T15:36:37;99777.28;;;16.58;58.30
73220;BME280;61434;43.538;-5.688;2022-12-15T15:39:11;99785.03;;;16.40;59.20
73220;BME280;61434;43.538;-5.688;2022-12-15T15:41:38;99782.06;;;16.56;59.17
73220;BME280;61434;43.538;-5.688;2022-12-15T15:44:10;99788.34;;;16.57;58.90
73220;BME280;61434;43.538;-5.688;2022-12-15T15:46:39;99788.53;;;16.55;59.29